createdAt,value
2022-11-25T00:01:29.720Z,94787.03
2022-11-25T00:03:58.810Z,94766.13
2022-11-25T00:06:31.496Z,94780.84
2022-11-25T00:09:07.875Z,94784.31
2022-11-25T00:11:39.936Z,94790.06
2022-11-25T00:14:09.873Z,94771.94
2022-11-25T00:16:36.727Z,94792.03
2022-11-25T00:19:03.765Z,94790.13
2022-11-25T00:21:33.874Z,94776.56
2022-11-25T00:24:06.764Z,94799.03
2022-11-25T00:26:35.897Z,94796.53
2022-11-25T00:29:06.480Z,94778.28
2022-11-25T00:31:38.775Z,94717.38
2022-11-25T00:34:06.119Z,94798.81
2022-11-25T00:36:36.180Z,94807.50
2022-11-25T00:39:10.022Z,94805.28
2022-11-25T00:41:55.681Z,94686.41
2022-11-25T00:44:41.478Z,94803.16
2022-11-25T00:47:17.751Z,94802.72
2022-11-25T00:49:53.442Z,94803.81
2022-11-25T00:52:23.844Z,94809.47
2022-11-25T00:54:51.937Z,94787.38
2022-11-25T00:57:21.589Z,94803.16
2022-11-25T00:59:49.242Z,94796.66
2022-11-25T01:02:34.625Z,94817.94
2022-11-25T01:05:01.921Z,94817.28
2022-11-25T01:07:30.439Z,94787.59
2022-11-25T01:09:57.362Z,94818.03
2022-11-25T01:12:26.663Z,94798.28
2022-11-25T01:14:53.685Z,94808.66
2022-11-25T01:17:20.503Z,94785.03
2022-11-25T01:19:47.749Z,94778.03
2022-11-25T01:22:14.561Z,94812.41
2022-11-25T01:24:43.125Z,94804.25
2022-11-25T01:27:10.192Z,94812.78
2022-11-25T01:29:37.457Z,94809.91
2022-11-25T01:32:04.663Z,94799.03
2022-11-25T01:34:34.615Z,94797.34
2022-11-25T01:37:01.809Z,94765.91
2022-11-25T01:39:32.834Z,94791.81
2022-11-25T01:42:02.027Z,94796.41
2022-11-25T01:44:31.241Z,94790.06
2022-11-25T01:47:07.105Z,94761.63
2022-11-25T01:50:05.188Z,94767.59
2022-11-25T01:52:43.174Z,94759.44
2022-11-25T01:55:15.894Z,94776.44
2022-11-25T01:58:06.216Z,94753.97
2022-11-25T02:00:33.495Z,94757.56
2022-11-25T02:03:00.924Z,94752.00
2022-11-25T02:06:09.253Z,94780.03
2022-11-25T02:08:36.399Z,94780.84
2022-11-25T02:11:06.826Z,94772.19
2022-11-25T02:13:34.137Z,94782.31
2022-11-25T02:16:01.146Z,94769.75
2022-11-25T02:18:28.383Z,94783.84
2022-11-25T02:20:55.329Z,94784.28
2022-11-25T02:23:56.574Z,94793.78
2022-11-25T02:26:24.141Z,94797.91
2022-11-25T02:28:51.399Z,94791.00
2022-11-25T02:31:22.317Z,94804.69
2022-11-25T02:33:49.807Z,94751.03
2022-11-25T02:36:20.690Z,94799.00
2022-11-25T02:39:01.707Z,94795.28
2022-11-25T02:41:34.840Z,94807.84
2022-11-25T02:44:05.530Z,94799.53
2022-11-25T02:46:33.096Z,94799.75
2022-11-25T02:49:10.429Z,94808.75
2022-11-25T02:51:41.428Z,94805.59
2022-11-25T02:54:10.591Z,94781.97
2022-11-25T02:56:37.583Z,94784.31
2022-11-25T02:59:05.057Z,94747.66
2022-11-25T03:01:32.533Z,94799.75
2022-11-25T03:03:59.738Z,94793.75
2022-11-25T03:06:29.271Z,94808.31
2022-11-25T03:08:56.698Z,94807.34
2022-11-25T03:11:47.128Z,94811.38
2022-11-25T03:14:15.373Z,94812.41
2022-11-25T03:16:43.389Z,94816.34
2022-11-25T03:19:10.519Z,94807.09
2022-11-25T03:21:37.471Z,94795.09
2022-11-25T03:24:04.620Z,94807.69
2022-11-25T03:26:31.590Z,94818.44
2022-11-25T03:28:58.478Z,94820.13
2022-11-25T03:31:25.457Z,94826.47
2022-11-25T03:33:52.406Z,94809.59
2022-11-25T03:36:21.165Z,94801.28
2022-11-25T03:38:48.281Z,94840.50
2022-11-25T03:41:15.179Z,94808.75
2022-11-25T03:43:42.628Z,94828.66
2022-11-25T03:46:10.087Z,94831.50
2022-11-25T03:48:37.326Z,94803.97
2022-11-25T03:51:04.316Z,94846.75
2022-11-25T03:53:31.465Z,94843.28
2022-11-25T03:56:00.935Z,94842.91
2022-11-25T03:58:37.098Z,94852.38
2022-11-25T04:01:05.774Z,94861.50
2022-11-25T04:03:33.350Z,94848.38
2022-11-25T04:06:00.334Z,94877.66
2022-11-25T04:08:28.999Z,94872.78
2022-11-25T04:10:56.574Z,94862.84
2022-11-25T04:13:29.166Z,94861.47
2022-11-25T04:15:56.684Z,94863.09
2022-11-25T04:18:23.539Z,94874.69
2022-11-25T04:20:54.865Z,94814.16
2022-11-25T04:23:22.148Z,94844.78
2022-11-25T04:26:00.382Z,94876.88
2022-11-25T04:28:35.803Z,94878.97
2022-11-25T04:31:07.342Z,94872.91
2022-11-25T04:33:36.383Z,94890.63
2022-11-25T04:36:03.892Z,94899.56
2022-11-25T04:38:31.139Z,94900.19
2022-11-25T04:40:58.815Z,94896.72
2022-11-25T04:43:26.466Z,94886.22
2022-11-25T04:46:16.147Z,94913.63
2022-11-25T04:48:47.062Z,94892.13
2022-11-25T04:51:15.653Z,94917.13
2022-11-25T04:53:44.135Z,94922.44
2022-11-25T04:56:18.503Z,94929.34
2022-11-25T04:59:09.205Z,94928.75
2022-11-25T05:01:40.363Z,94933.38
2022-11-25T05:04:30.629Z,94936.69
2022-11-25T05:06:57.883Z,94909.53
2022-11-25T05:09:26.026Z,94956.63
2022-11-25T05:12:05.934Z,94948.03
2022-11-25T05:14:34.955Z,94941.78
2022-11-25T05:17:03.649Z,94944.84
2022-11-25T05:19:31.464Z,94971.03
2022-11-25T05:21:58.564Z,94968.78
2022-11-25T05:24:26.264Z,94970.56
2022-11-25T05:26:55.840Z,94936.91
2022-11-25T05:29:23.266Z,94976.22
2022-11-25T05:31:50.207Z,94958.81
2022-11-25T05:34:17.302Z,94980.97
2022-11-25T05:36:45.441Z,94984.59
2022-11-25T05:39:12.742Z,94981.16
2022-11-25T05:42:11.852Z,94997.00
2022-11-25T05:44:39.397Z,94991.56
2022-11-25T05:47:07.117Z,95002.06
2022-11-25T05:49:34.332Z,94988.44
2022-11-25T05:52:01.504Z,95010.78
2022-11-25T05:54:33.747Z,94973.44
2022-11-25T05:57:01.560Z,95001.81
2022-11-25T05:59:47.887Z,94965.50
2022-11-25T06:02:21.533Z,95015.97
2022-11-25T06:04:48.767Z,94998.09
2022-11-25T06:07:16.921Z,94996.47
2022-11-25T06:09:44.755Z,95016.50
2022-11-25T06:12:12.146Z,95019.41
2022-11-25T06:14:47.022Z,95038.13
2022-11-25T06:17:13.989Z,95016.47
2022-11-25T06:19:49.625Z,95037.94
2022-11-25T06:22:16.616Z,95041.38
2022-11-25T06:24:46.534Z,95052.53
2022-11-25T06:27:16.177Z,95041.16
2022-11-25T06:29:43.238Z,95051.28
2022-11-25T06:32:11.574Z,95058.53
2022-11-25T06:34:57.339Z,95052.31
2022-11-25T06:37:44.481Z,95058.03
2022-11-25T06:40:11.667Z,95045.00
2022-11-25T06:42:39.780Z,95057.44
2022-11-25T06:45:07.596Z,95076.09
2022-11-25T06:47:34.609Z,95074.44
2022-11-25T06:50:01.547Z,95074.81
2022-11-25T06:52:33.250Z,95080.91
2022-11-25T06:55:00.621Z,95076.66
2022-11-25T06:57:27.552Z,95060.63
2022-11-25T06:59:54.554Z,95086.38
2022-11-25T07:02:21.594Z,95079.22
2022-11-25T07:04:48.504Z,95083.81
2022-11-25T07:07:15.590Z,95089.75
2022-11-25T07:09:42.674Z,95072.31
2022-11-25T07:12:09.577Z,95093.00
2022-11-25T07:14:36.615Z,95077.38
2022-11-25T07:17:07.476Z,95087.41
2022-11-25T07:19:38.573Z,95096.44
2022-11-25T07:22:05.680Z,95108.88
2022-11-25T07:24:34.099Z,95089.59
2022-11-25T07:27:01.409Z,95102.72
2022-11-25T07:29:51.995Z,95100.44
2022-11-25T07:32:17.262Z,95111.16
2022-11-25T07:34:44.206Z,95102.84
2022-11-25T07:37:11.637Z,95088.50
2022-11-25T07:39:38.886Z,95101.16
2022-11-25T07:42:06.106Z,95115.66
2022-11-25T07:44:33.093Z,95091.69
2022-11-25T07:47:11.672Z,95120.25
2022-11-25T07:49:57.486Z,95110.53
2022-11-25T07:52:24.385Z,95113.81
2022-11-25T07:54:53.475Z,95105.75
2022-11-25T07:57:20.907Z,95106.06
2022-11-25T07:59:48.067Z,95114.31
2022-11-25T08:02:15.223Z,95128.25
2022-11-25T08:04:42.341Z,95125.34
2022-11-25T08:07:10.941Z,95112.13
2022-11-25T08:09:38.508Z,95129.25
2022-11-25T08:12:05.804Z,95099.53
2022-11-25T08:14:32.943Z,95103.16
2022-11-25T08:16:59.948Z,95104.41
2022-11-25T08:19:31.258Z,95118.34
2022-11-25T08:21:58.604Z,95131.91
2022-11-25T08:24:25.421Z,95117.75
2022-11-25T08:26:53.377Z,95125.72
2022-11-25T08:29:20.771Z,95151.69
2022-11-25T08:31:47.725Z,95117.41
2022-11-25T08:34:33.050Z,95134.56
2022-11-25T08:37:03.880Z,95148.94
2022-11-25T08:42:18.124Z,95145.06
2022-11-25T08:44:45.039Z,95123.81
2022-11-25T08:47:12.116Z,95127.66
2022-11-25T08:49:41.380Z,95145.09
2022-11-25T08:52:09.711Z,95142.44
2022-11-25T08:54:36.735Z,95154.38
2022-11-25T08:57:03.729Z,95129.75
2022-11-25T08:59:30.852Z,95137.94
2022-11-25T09:01:58.557Z,95147.31
2022-11-25T09:04:25.531Z,95120.09
2022-11-25T09:06:52.469Z,95148.63
2022-11-25T09:09:19.646Z,95107.34
2022-11-25T09:11:46.747Z,95132.91
2022-11-25T09:14:14.288Z,95160.50
2022-11-25T09:16:41.222Z,95139.38
2022-11-25T09:19:08.094Z,95136.06
2022-11-25T09:21:35.126Z,95130.31
2022-11-25T09:24:02.311Z,95156.66
2022-11-25T09:26:33.023Z,95089.25
2022-11-25T09:29:00.003Z,95145.81
2022-11-25T09:31:27.132Z,95157.06
2022-11-25T09:33:54.380Z,95144.19
2022-11-25T09:36:21.469Z,95137.91
2022-11-25T09:38:48.405Z,95159.81
2022-11-25T09:41:41.401Z,95154.94
2022-11-25T09:44:44.141Z,95152.50
2022-11-25T09:47:29.949Z,95157.91
2022-11-25T09:50:14.817Z,95161.44
2022-11-25T09:53:23.556Z,95155.19
2022-11-25T09:56:00.014Z,95150.69
2022-11-25T09:58:36.310Z,95157.84
2022-11-25T10:01:17.180Z,95161.69
2022-11-25T10:04:09.989Z,95163.91
2022-11-25T10:06:52.067Z,95162.19
2022-11-25T10:09:28.947Z,95152.91
2022-11-25T10:12:19.373Z,95165.00
2022-11-25T10:14:50.126Z,95142.19
2022-11-25T10:17:43.538Z,95192.06
2022-11-25T10:20:28.186Z,95167.50
2022-11-25T10:23:28.088Z,95157.25
2022-11-25T10:26:10.883Z,95141.53
2022-11-25T10:28:40.854Z,95151.19
2022-11-25T10:31:17.241Z,95157.75
2022-11-25T10:33:47.671Z,95153.94
2022-11-25T10:36:19.942Z,95156.72
2022-11-25T10:38:57.565Z,95153.31
2022-11-25T10:41:30.259Z,95134.06
2022-11-25T10:43:57.439Z,95152.59
2022-11-25T10:47:12.425Z,95148.31
2022-11-25T10:49:46.254Z,95134.88
2022-11-25T10:52:14.238Z,95155.97
2022-11-25T10:54:41.794Z,95148.97
2022-11-25T10:57:19.893Z,95136.03
2022-11-25T11:00:08.763Z,95164.56
2022-11-25T11:02:40.087Z,95164.63
2022-11-25T11:05:10.267Z,95165.53
2022-11-25T11:07:41.414Z,95170.47
2022-11-25T11:10:17.675Z,95181.72
2022-11-25T11:13:06.451Z,95178.81
2022-11-25T11:15:47.366Z,95177.97
2022-11-25T11:18:37.953Z,95161.59
2022-11-25T11:21:23.392Z,95180.09
2022-11-25T11:23:53.792Z,95138.28
2022-11-25T11:26:29.169Z,95185.56
2022-11-25T11:29:15.264Z,95166.75
2022-11-25T11:31:49.306Z,95178.28
2022-11-25T11:34:48.629Z,95191.34
2022-11-25T11:37:44.232Z,95200.94
2022-11-25T11:40:14.375Z,95189.00
2022-11-25T11:42:52.633Z,95167.88
2022-11-25T11:45:25.802Z,95197.91
2022-11-25T11:48:08.040Z,95190.09
2022-11-25T11:50:40.941Z,95178.00
2022-11-25T11:53:54.335Z,95185.88
2022-11-25T11:56:35.975Z,95186.47
2022-11-25T11:59:30.975Z,95188.25
2022-11-25T12:02:10.758Z,95192.06
2022-11-25T12:04:41.505Z,95178.13
2022-11-25T12:07:40.535Z,95184.19
2022-11-25T12:10:24.726Z,95183.72
2022-11-25T12:13:13.393Z,95187.50
2022-11-25T12:15:46.585Z,95194.13
2022-11-25T12:18:20.205Z,95201.75
2022-11-25T12:21:08.936Z,95197.38
2022-11-25T12:23:44.537Z,95181.75
2022-11-25T12:26:22.449Z,95191.56
2022-11-25T12:28:57.529Z,95190.22
2022-11-25T12:31:30.543Z,95184.34
2022-11-25T12:34:19.405Z,95215.91
2022-11-25T12:36:47.402Z,95201.00
2022-11-25T12:39:17.282Z,95201.59
2022-11-25T12:41:53.363Z,95188.59
2022-11-25T12:44:26.926Z,95163.44
2022-11-25T12:46:57.153Z,95164.03
2022-11-25T12:49:32.082Z,95196.78
2022-11-25T12:52:36.108Z,95186.09
2022-11-25T12:55:06.744Z,95188.44
2022-11-25T12:57:55.488Z,95183.16
2022-11-25T13:00:43.064Z,95178.28
2022-11-25T13:03:40.147Z,95180.84
2022-11-25T13:06:22.271Z,95172.38
2022-11-25T13:09:14.429Z,95173.19
2022-11-25T13:12:01.392Z,95173.03
2022-11-25T13:15:01.512Z,95186.16
2022-11-25T13:17:36.577Z,95169.34
2022-11-25T13:20:26.842Z,95163.91
2022-11-25T13:23:11.200Z,95170.00
2022-11-25T13:25:42.066Z,95172.59
2022-11-25T13:28:38.090Z,95187.44
2022-11-25T13:31:14.366Z,95186.03
2022-11-25T13:33:44.602Z,95178.72
2022-11-25T13:36:45.373Z,95188.69
2022-11-25T13:39:18.315Z,95174.44
2022-11-25T13:42:00.485Z,95172.91
2022-11-25T13:44:32.328Z,95177.81
2022-11-25T13:47:20.205Z,95170.91
2022-11-25T13:49:50.562Z,95190.38
2022-11-25T13:52:20.413Z,95192.44
2022-11-25T13:54:53.856Z,95177.56
2022-11-25T13:57:30.359Z,95205.69
2022-11-25T14:00:10.544Z,95186.81
2022-11-25T14:02:49.487Z,95194.53
2022-11-25T14:05:26.028Z,95209.88
2022-11-25T14:08:07.960Z,95169.28
2022-11-25T14:10:38.437Z,95211.13
2022-11-25T14:13:16.173Z,95206.84
2022-11-25T14:16:17.301Z,95208.88
2022-11-25T14:22:11.314Z,95206.25
2022-11-25T14:24:49.850Z,95208.63
2022-11-25T14:27:25.455Z,95194.66
2022-11-25T14:29:59.537Z,95220.34
2022-11-25T14:32:30.519Z,95193.94
2022-11-25T14:35:09.282Z,95210.66
2022-11-25T14:38:09.461Z,95215.13
2022-11-25T14:41:01.681Z,95222.16
2022-11-25T14:43:31.043Z,95182.91
2022-11-25T14:46:16.632Z,95194.47
2022-11-25T14:48:44.737Z,95201.63
2022-11-25T14:51:13.956Z,95222.19
2022-11-25T14:53:48.510Z,95192.94
2022-11-25T14:56:22.333Z,95200.25
2022-11-25T14:58:52.145Z,95220.16
2022-11-25T15:01:20.985Z,95214.84
2022-11-25T15:03:49.435Z,95222.25
2022-11-25T15:06:20.115Z,95222.25
2022-11-25T15:08:59.630Z,95207.66
2022-11-25T15:11:29.021Z,95225.53
2022-11-25T15:14:07.120Z,95213.59
2022-11-25T15:16:39.136Z,95229.06
2022-11-25T15:19:16.130Z,95229.69
2022-11-25T15:22:15.037Z,95227.06
2022-11-25T15:24:42.748Z,95213.38
2022-11-25T15:27:22.734Z,95211.34
2022-11-25T15:29:49.772Z,95222.00
2022-11-25T15:32:25.588Z,95243.53
2022-11-25T15:34:54.278Z,95221.75
2022-11-25T15:37:21.539Z,95243.91
2022-11-25T15:39:48.585Z,95217.53
2022-11-25T15:42:23.383Z,95254.50
2022-11-25T15:44:55.885Z,95219.16
2022-11-25T15:47:24.597Z,95257.75
2022-11-25T15:49:57.537Z,95263.09
2022-11-25T15:52:25.984Z,95266.19
2022-11-25T15:54:57.545Z,95243.81
2022-11-25T15:57:24.516Z,95259.66
2022-11-25T16:00:14.919Z,95251.03
2022-11-25T16:02:41.922Z,95257.38
2022-11-25T16:05:18.024Z,95248.44
2022-11-25T16:07:51.628Z,95260.00
2022-11-25T16:10:45.154Z,95266.38
2022-11-25T16:13:23.180Z,95264.13
2022-11-25T16:16:11.981Z,95271.28
2022-11-25T16:18:48.034Z,95266.78
2022-11-25T16:21:18.553Z,95263.34
2022-11-25T16:24:05.731Z,95263.34
2022-11-25T16:26:52.793Z,95247.69
2022-11-25T16:29:31.906Z,95243.66
2022-11-25T16:32:00.396Z,95241.81
2022-11-25T16:34:27.856Z,95246.34
2022-11-25T16:36:54.792Z,95263.41
2022-11-25T16:39:22.036Z,95251.38
2022-11-25T16:41:58.613Z,95271.94
2022-11-25T16:44:27.300Z,95254.28
2022-11-25T16:46:54.721Z,95262.41
2022-11-25T16:49:22.666Z,95261.97
2022-11-25T16:51:50.985Z,95275.47
2022-11-25T16:54:22.844Z,95254.69
2022-11-25T16:56:53.102Z,95256.91
2022-11-25T16:59:34.795Z,95271.34
2022-11-25T17:02:02.485Z,95266.84
2022-11-25T17:04:29.635Z,95267.28
2022-11-25T17:07:31.101Z,95269.72
2022-11-25T17:09:45.171Z,95285.41
2022-11-25T17:12:18.158Z,95260.81
2022-11-25T17:14:47.649Z,95284.38
2022-11-25T17:17:24.613Z,95291.31
2022-11-25T17:19:53.461Z,95294.78
2022-11-25T17:22:24.800Z,95269.16
2022-11-25T17:24:52.289Z,95271.59
2022-11-25T17:27:28.915Z,95269.97
2022-11-25T17:29:58.680Z,95267.53
2022-11-25T17:32:26.764Z,95284.44
2022-11-25T17:34:53.877Z,95307.66
2022-11-25T17:37:23.235Z,95299.09
2022-11-25T17:39:52.784Z,95236.25
2022-11-25T17:42:28.880Z,95283.84
2022-11-25T17:44:56.245Z,95297.91
2022-11-25T17:47:23.144Z,95295.03
2022-11-25T17:49:50.212Z,95290.56
2022-11-25T17:52:17.098Z,95290.75
2022-11-25T17:54:44.257Z,95306.44
2022-11-25T17:57:17.749Z,95295.03
2022-11-25T17:59:44.936Z,95307.69
2022-11-25T18:02:20.874Z,95276.75
2022-11-25T18:04:48.850Z,95314.19
2022-11-25T18:07:15.910Z,95318.88
2022-11-25T18:09:44.403Z,95324.38
2022-11-25T18:12:23.272Z,95320.72
2022-11-25T18:14:50.574Z,95294.63
2022-11-25T18:17:19.140Z,95318.47
2022-11-25T18:19:52.849Z,95294.22
2022-11-25T18:22:21.889Z,95290.34
2022-11-25T18:24:48.952Z,95298.72
2022-11-25T18:27:27.196Z,95316.03
2022-11-25T18:29:55.657Z,95307.88
2022-11-25T18:32:23.661Z,95316.22
2022-11-25T18:34:51.968Z,95303.59
2022-11-25T18:37:19.095Z,95320.91
2022-11-25T18:39:46.648Z,95328.66
2022-11-25T18:42:32.207Z,95332.72
2022-11-25T18:44:59.157Z,95321.53
2022-11-25T18:47:26.308Z,95321.13
2022-11-25T18:49:56.303Z,95309.09
2022-11-25T18:52:24.959Z,95325.41
2022-11-25T18:54:52.180Z,95337.41
2022-11-25T18:57:19.498Z,95330.69
2022-11-25T18:59:56.026Z,95318.28
2022-11-25T19:02:34.724Z,95300.38
2022-11-25T19:05:02.969Z,95330.69
2022-11-25T19:07:30.309Z,95327.03
2022-11-25T19:09:57.211Z,95331.31
2022-11-25T19:12:26.130Z,95343.53
2022-11-25T19:14:53.356Z,95347.41
2022-11-25T19:17:24.245Z,95362.69
2022-11-25T19:19:51.480Z,95353.09
2022-11-25T19:22:19.013Z,95308.31
2022-11-25T19:24:48.642Z,95337.63
2022-11-25T19:27:23.756Z,95349.44
2022-11-25T19:29:52.471Z,95357.78
2022-11-25T19:32:26.712Z,95364.13
2022-11-25T19:35:01.553Z,95233.50
2022-11-25T19:37:30.863Z,95365.75
2022-11-25T19:39:58.267Z,95375.31
2022-11-25T19:42:28.411Z,95381.03
2022-11-25T19:44:55.668Z,95373.31
2022-11-25T19:47:25.022Z,95382.47
2022-11-25T19:49:56.397Z,95361.50
2022-11-25T19:52:35.972Z,95360.06
2022-11-25T19:55:22.485Z,95361.91
2022-11-25T19:57:50.700Z,95380.44
2022-11-25T20:00:19.845Z,95375.75
2022-11-25T20:02:49.724Z,95370.84
2022-11-25T20:05:25.816Z,95380.63
2022-11-25T20:07:52.760Z,95379.59
2022-11-25T20:10:24.273Z,95384.91
2022-11-25T20:12:52.130Z,95381.84
2022-11-25T20:15:20.310Z,95384.91
2022-11-25T20:17:58.622Z,95375.75
2022-11-25T20:20:25.650Z,95394.47
2022-11-25T20:23:14.094Z,95372.06
2022-11-25T20:25:45.158Z,95379.41
2022-11-25T20:28:15.329Z,95397.72
2022-11-25T20:30:42.341Z,95403.22
2022-11-25T20:33:09.494Z,95368.00
2022-11-25T20:35:36.544Z,95365.78
2022-11-25T20:38:04.012Z,95355.59
2022-11-25T20:40:39.139Z,95400.78
2022-11-25T20:43:30.119Z,95379.81
2022-11-25T20:45:58.762Z,95412.22
2022-11-25T20:48:26.307Z,95391.03
2022-11-25T20:50:53.431Z,95414.84
2022-11-25T20:53:22.615Z,95426.47
2022-11-25T20:55:50.468Z,95408.13
2022-11-25T20:58:17.273Z,95425.63
2022-11-25T21:00:44.260Z,95418.13
2022-11-25T21:03:11.308Z,95396.91
2022-11-25T21:05:38.352Z,95432.16
2022-11-25T21:08:15.064Z,95409.16
2022-11-25T21:10:42.929Z,95436.41
2022-11-25T21:13:16.625Z,95419.69
2022-11-25T21:15:43.751Z,95429.69
2022-11-25T21:18:11.343Z,95441.72
2022-11-25T21:20:39.747Z,95442.53
2022-11-25T21:23:12.820Z,95422.97
2022-11-25T21:25:39.807Z,95423.34
2022-11-25T21:28:06.635Z,95446.59
2022-11-25T21:30:34.069Z,95449.84
2022-11-25T21:33:01.701Z,95454.53
2022-11-25T21:35:34.899Z,95462.06
2022-11-25T21:38:15.379Z,95397.63
2022-11-25T21:40:46.626Z,95474.25
2022-11-25T21:43:21.727Z,95466.09
2022-11-25T21:45:52.792Z,95471.81
2022-11-25T21:48:23.906Z,95455.06
2022-11-25T21:50:52.635Z,95487.25
2022-11-25T21:53:19.946Z,95463.22
2022-11-25T21:55:47.883Z,95438.06
2022-11-25T21:58:26.052Z,95464.63
2022-11-25T22:00:58.730Z,95483.19
2022-11-25T22:03:29.097Z,95463.25
2022-11-25T22:05:56.151Z,95484.44
2022-11-25T22:08:24.104Z,95469.56
2022-11-25T22:10:54.014Z,95480.34
2022-11-25T22:13:31.958Z,95480.16
2022-11-25T22:15:59.342Z,95485.88
2022-11-25T22:18:32.783Z,95457.34
2022-11-25T22:20:59.849Z,95500.72
2022-11-25T22:23:27.819Z,95487.72
2022-11-25T22:25:55.723Z,95488.53
2022-11-25T22:28:26.545Z,95499.88
2022-11-25T22:30:56.199Z,95511.50
2022-11-25T22:33:30.556Z,95483.31
2022-11-25T22:35:58.011Z,95493.50
2022-11-25T22:38:25.022Z,95500.63
2022-11-25T22:41:04.993Z,95491.69
2022-11-25T22:43:37.632Z,95498.22
2022-11-25T22:46:05.275Z,95477.00
2022-11-25T22:48:39.572Z,95499.63
2022-11-25T22:51:16.457Z,95502.31
2022-11-25T22:53:43.558Z,95490.88
2022-11-25T22:56:17.454Z,95480.28
2022-11-25T22:58:44.502Z,95492.94
2022-11-25T23:01:16.269Z,95430.97
2022-11-25T23:03:44.537Z,95497.81
2022-11-25T23:06:14.611Z,95503.75
2022-11-25T23:08:41.657Z,95491.34
2022-11-25T23:11:17.499Z,95474.84
2022-11-25T23:13:44.516Z,95500.13
2022-11-25T23:16:11.688Z,95506.63
2022-11-25T23:18:42.916Z,95512.09
2022-11-25T23:21:29.405Z,95488.88
2022-11-25T23:23:56.740Z,95491.91
2022-11-25T23:26:23.859Z,95493.97
2022-11-25T23:28:51.060Z,95500.47
2022-11-25T23:31:18.508Z,95481.91
2022-11-25T23:33:51.129Z,95502.34
2022-11-25T23:36:23.351Z,95500.13
2022-11-25T23:38:57.917Z,95503.97
2022-11-25T23:41:27.199Z,95489.94
2022-11-25T23:43:54.171Z,95496.47
2022-11-25T23:46:25.020Z,95494.84
2022-11-25T23:48:58.173Z,95478.31
2022-11-25T23:51:27.154Z,95483.81
2022-11-25T23:53:55.643Z,95490.94
2022-11-25T23:56:22.712Z,95464.66
2022-11-25T23:58:50.076Z,95476.47
